Latest Coastal Weather Observations for Groote Eylandt Airport

IDD60701

Issued at 5:51 pm CST Friday 29 May 2015 (issued every 10 minutes, with the page automatically refreshed every 10 minutes)

About coastal observations | Map of coastal stations | Coastal observations for NT | Marine services | Other Formats
Station Details ID: 014518 Name: GROOTE EYLANDT AIRPORT Lat: -13.97 Lon: 136.46 Height: 13.7 m
Data from the previous 72 hours. | See also: Recent months at Groote Eylandt Airport
Date/Time
CST
Temp

°C
Wind Pressure Rain
since 9am
mm
Weather Cloud Vis
km
Sea
Height
m
Swell
Dir
 
Speed
knots
Gust
knots
hPa Trend Height
m
Period
s
Dir
29/05:30pm 28.0 E 9 14 1013.2 - 0.2 - Partly cloudy 10 - - - -
29/05:00pm 28.4 E 9 13 1012.9 - 0.2 - - 10 - - - -
29/04:30pm 29.5 E 12 17 1012.6 - 0.2 - Partly cloudy 10 - - - -
29/04:00pm 29.4 ESE 8 12 1012.3 - 0.2 - Partly cloudy 10 - - - -
29/03:30pm 29.8 ESE 8 13 1012.5 - 0.2 - Partly cloudy 10 - - - -
29/03:00pm 30.5 E 11 16 1012.4 - 0.2 - Mostly cloudy 10 - - - -
29/02:30pm 29.8 ESE 9 15 1012.7 - 0.2 - Partly cloudy 10 - - - -
29/02:00pm 29.7 ESE 8 12 1012.9 - 0.2 - Partly cloudy 10 - - - -
29/01:30pm 28.0 ESE 6 10 1013.2 - 0.2 - Partly cloudy 10 - - - -
29/01:00pm 26.2 ESE 11 18 1013.9 - 0.0 - Partly cloudy 10 - - - -
29/12:30pm 29.2 ESE 7 11 1013.8 - 0.0 - Partly cloudy 10 - - - -
29/12:00pm 30.1 ESE 9 16 1014.1 - 0.0 - Cloudy 10 - - - -
29/11:30am 29.2 ESE 9 15 1014.4 - 0.0 - Partly cloudy 10 - - - -
29/11:00am 29.8 E 12 19 1014.6 - 0.0 - Partly cloudy 10 - - - -
29/10:30am 30.9 E 13 22 1014.6 - 0.0 - Partly cloudy 10 - - - -
29/10:00am 29.6 ESE 10 15 1014.8 - 0.0 - Partly cloudy 10 - - - -
29/09:30am 29.1 ESE 9 15 1015.1 - 0.0 - - 10 - - - -
29/09:00am 28.0 SE 4 8 1014.9 - 0.0 - Partly cloudy 10 - - - -
29/08:30am 28.2 ESE 6 11 1014.7 - 0.0 - Partly cloudy 10 - - - -
29/08:00am 26.5 SSE 3 4 1014.4 - 0.0 - Partly cloudy 10 - - - -
29/07:30am 24.9 SSE 4 6 1013.8 - 0.0 - - 10 - - - -
29/07:00am 24.8 SE 4 5 1013.4 - 0.0 - - 10 - - - -
29/06:30am 25.0 SE 4 7 1013.1 - 0.0 - - 10 - - - -
29/06:00am 25.2 SE 5 8 1012.9 - 0.0 - - 10 - - - -
29/05:30am 25.0 SE 5 9 1012.6 - 0.0 - - 10 - - - -
29/05:00am 24.9 SE 5 8 1012.6 - 0.0 - - 10 - - - -
29/04:30am 24.9 SE 4 6 1012.5 - 0.0 - - 10 - - - -
29/04:00am 25.0 SE 5 8 1012.6 - 0.0 - - 10 - - - -
29/03:30am 24.9 SE 4 6 1012.6 - 0.0 - - 10 - - - -
29/03:00am 25.0 SE 4 7 1012.9 - 0.0 - Mostly clear 10 - - - -
29/02:30am 23.9 SSE 2 5 1013.2 - 0.0 - Partly cloudy 10 - - - -
29/02:00am 23.8 ESE 1 5 1013.5 - 0.0 - Partly cloudy 10 - - - -
29/01:30am 24.0 CALM 0 0 1013.7 - 0.0 - - 10 - - - -
29/01:00am 24.1 CALM 0 0 1013.9 - 0.0 - - 10 - - - -
29/12:30am 24.4 CALM 0 0 1014.0 - 0.0 - - 10 - - - -
29/12:00am 24.6 SSE 3 6 1014.2 - 0.0 - Mostly clear 10 - - - -
 
Date/Time
CST
Temp

°C
Wind Pressure Rain
since 9am
mm
Weather Cloud Vis
km
Sea
Height
m
Swell
Dir
 
Speed
knots
Gust
knots
hPa Trend Height
m
Period
s
Dir
28/11:30pm 24.7 SSE 2 4 1014.3 - 0.0 - - 10 - - - -
28/11:00pm 24.9 SSE 2 4 1014.5 - 0.0 - - 10 - - - -
28/10:30pm 25.1 SE 4 7 1014.5 - 0.0 - - 10 - - - -
28/10:00pm 25.4 SE 3 5 1014.6 - 0.0 - - 10 - - - -
28/09:30pm 25.7 ESE 5 7 1014.6 - 0.0 - - 10 - - - -
28/09:00pm 25.7 ESE 5 7 1014.6 - 0.0 - - 10 - - - -
28/08:30pm 25.5 SE 4 5 1014.4 - 0.0 - - 10 - - - -
28/08:00pm 25.6 SE 4 6 1014.2 - 0.0 - Partly cloudy 10 - - - -
28/07:30pm 25.9 SE 4 7 1013.8 - 0.0 - - 10 - - - -
28/07:00pm 26.3 SSE 4 6 1013.5 - 0.0 - - 10 - - - -
28/06:30pm 26.9 SE 5 8 1013.0 - 0.0 - - 10 - - - -
28/06:00pm 27.5 ESE 7 11 1012.8 - 0.0 - - 10 - - - -
28/05:30pm 28.1 ESE 9 13 1012.5 - 0.0 - - 10 - - - -
28/05:00pm 28.9 ESE 8 12 1012.4 - 0.0 - - 10 - - - -
28/04:30pm 29.6 ESE 9 14 1012.3 - 0.0 - - 10 - - - -
28/04:00pm 30.1 E 9 14 1012.2 - 0.0 - Partly cloudy 10 - - - -
28/03:30pm 29.8 ESE 7 15 1012.3 - 0.0 - Partly cloudy 10 - - - -
28/03:00pm 29.9 ESE 9 13 1012.4 - 0.0 - - 10 - - - -
28/02:30pm 30.2 E 12 17 1012.5 - 0.0 - Partly cloudy 10 - - - -
28/02:00pm 30.3 E 11 18 1012.7 - 0.0 - Partly cloudy 10 - - - -
28/01:30pm 30.7 ESE 11 18 1012.9 - 0.0 - - 10 - - - -
28/01:00pm 30.7 ESE 8 12 1013.3 - 0.0 - - 10 - - - -
28/12:30pm 30.3 ESE 9 14 1013.6 - 0.0 - - 10 - - - -
28/12:00pm 30.2 ESE 10 16 1014.0 - 0.0 - - 10 - - - -
28/11:30am 29.9 ESE 8 15 1014.4 - 0.0 - - 10 - - - -
28/11:00am 30.1 ESE 7 12 1014.6 - 0.0 - - 10 - - - -
28/10:30am 29.0 ESE 8 11 1014.7 - 0.0 - - 10 - - - -
28/10:00am 27.8 ESE 5 8 1014.9 - 0.0 - - 10 - - - -
28/09:30am 27.0 ESE 4 7 1015.0 - 0.0 - - 10 - - - -
28/09:00am 25.8 SE 4 5 1014.8 - 0.0 - - 10 - - - -
28/08:30am 24.4 ESE 3 5 1014.7 - 0.0 - - 10 - - - -
28/08:00am 23.1 E 3 4 1014.5 - 0.0 - - 10 - - - -
28/07:30am 21.6 E 3 3 1014.2 - 0.0 - - 10 - - - -
28/07:00am 20.6 E 3 3 1013.8 - 0.0 - - 10 - - - -
28/06:30am 20.4 ESE 3 4 1013.4 - 0.0 - - 10 - - - -
28/06:00am 20.7 ESE 3 5 1013.4 - 0.0 - - 10 - - - -
28/05:30am 20.8 CALM 0 0 1013.3 - 0.0 - - 10 - - - -
28/05:00am 20.7 ESE 2 4 1013.1 - 0.0 - - 10 - - - -
28/04:30am 20.8 E 4 6 1012.9 - 0.0 - - 10 - - - -
28/04:00am 19.7 ESE 4 5 1012.8 - 0.0 - - 10 - - - -
28/03:30am 18.7 ESE 3 4 1012.8 - 0.0 - - 10 - - - -
28/03:00am 18.7 E 2 3 1012.9 - 0.0 - - 10 - - - -
28/02:30am 19.0 E 3 3 1013.1 - 0.0 - - 10 - - - -
28/02:00am 19.5 E 2 4 1013.4 - 0.0 - - 10 - - - -
28/01:30am 20.0 CALM 0 0 1013.7 - 0.0 - - 10 - - - -
28/01:00am 20.4 CALM 0 0 1013.8 - 0.0 - - 10 - - - -
28/12:30am 20.4 CALM 0 0 1013.8 - 0.0 - - 10 - - - -
28/12:00am 20.9 CALM 0 0 1014.2 - 0.0 - - 10 - - - -
 
Date/Time
CST
Temp

°C
Wind Pressure Rain
since 9am
mm
Weather Cloud Vis
km
Sea
Height
m
Swell
Dir
 
Speed
knots
Gust
knots
hPa Trend Height
m
Period
s
Dir
27/11:30pm 21.2 CALM 0 0 1014.3 - 0.0 - - 10 - - - -
27/11:00pm 21.6 CALM 0 0 1014.5 - 0.0 - - 10 - - - -
27/10:30pm 22.1 CALM 0 0 1014.6 - 0.0 - - 10 - - - -
27/10:00pm 22.5 CALM 0 0 1014.5 - 0.0 - - 10 - - - -
27/09:30pm 23.1 E 3 3 1014.6 - 0.0 - - 10 - - - -
27/09:00pm 23.7 E 3 4 1014.4 - 0.0 - - 10 - - - -
27/08:30pm 24.7 E 4 5 1014.3 - 0.0 - - 10 - - - -
27/08:00pm 25.2 E 4 5 1014.1 - 0.0 - - 10 - - - -
27/07:30pm 25.7 ESE 5 7 1013.5 - 0.0 - - 10 - - - -
27/07:00pm 26.1 ESE 5 7 1013.3 - 0.0 - - 10 - - - -
27/06:30pm 26.8 E 8 11 1012.9 - 0.0 - - 10 - - - -
27/06:00pm 27.5 E 9 11 1012.7 - 0.0 - - 10 - - - -
27/05:30pm 28.1 E 9 13 1012.4 - 0.0 - Partly cloudy 10 - - - -
27/05:00pm 28.8 ENE 9 11 1012.3 - 0.0 - Partly cloudy 10 - - - -
27/04:30pm 29.7 ESE 6 9 1011.8 - 0.0 - Partly cloudy 10 - - - -
27/04:00pm 30.7 E 8 12 1011.7 - 0.0 - Partly cloudy 10 - - - -
27/03:30pm 30.6 E 11 15 1011.9 - 0.0 - - 10 - - - -
27/03:00pm 30.8 E 10 15 1012.1 - 0.0 - - 10 - - - -
27/02:30pm 31.0 ENE 10 14 1012.2 - 0.0 - Partly cloudy 10 - - - -
27/02:00pm 31.6 ENE 13 19 1012.3 - 0.0 - Partly cloudy 10 - - - -
27/01:30pm 31.0 E 8 13 1012.7 - 0.0 - Partly cloudy 10 - - - -
27/01:00pm 30.9 ESE 9 16 1013.1 - 0.0 - Partly cloudy 10 - - - -
27/12:30pm 30.7 ESE 8 12 1013.7 - 0.0 - Partly cloudy 10 - - - -
27/12:00pm 30.8 E 11 16 1014.4 - 0.0 - Clear 10 - - - -
27/11:30am 30.7 ESE 10 18 1014.8 - 0.0 - - 10 - - - -
27/11:00am 30.4 ESE 11 16 1015.2 - 0.0 - - 10 - - - -
27/10:30am 29.4 ESE 12 18 1015.5 - 0.0 - - 10 - - - -
27/10:00am 29.3 ESE 9 14 1015.9 - 0.0 - - 10 - - - -
27/09:30am 28.5 ESE 9 16 1015.9 - 0.0 - - 10 - - - -
27/09:00am 27.3 ESE 7 13 1015.7 - 0.0 - - 10 - - - -
27/08:30am 26.2 SE 5 10 1015.5 - 0.0 - - 10 - - - -
27/08:00am 25.1 SSE 2 5 1015.1 - 0.0 - Partly cloudy 10 - - - -
27/07:30am 22.4 SE 3 4 1014.9 - 0.0 - Cloudy 10 - - - -
27/07:00am 19.9 ESE 1 4 1014.5 - 0.0 - Partly cloudy 10 - - - -
27/06:30am 19.6 CALM 0 0 1014.1 - 0.0 - Partly cloudy 10 - - - -
27/06:00am 19.8 CALM 0 0 1013.9 - 0.0 - - 10 - - - -
27/05:30am 20.1 CALM 0 0 1013.8 - 0.0 - - 10 - - - -
27/05:00am 20.3 CALM 0 0 1013.6 - 0.0 - - 10 - - - -
27/04:30am 20.1 CALM 0 2 1013.5 - 0.0 - - 10 - - - -
27/04:00am 20.6 CALM 0 0 1013.5 - 0.0 - - 10 - - - -
27/03:30am 21.0 SE 2 4 1013.6 - 0.0 - - 10 - - - -
27/03:00am 21.8 CALM 0 0 1013.8 - 0.0 - - 10 - - - -
27/02:30am 22.1 CALM 0 0 1014.2 - 0.0 - - 10 - - - -
27/02:00am 22.7 ESE 3 4 1014.6 - 0.0 - - 10 - - - -
27/01:30am 22.9 ESE 2 4 1014.9 - 0.0 - - 10 - - - -
27/01:00am 22.9 ESE 3 4 1015.3 - 0.0 - - 10 - - - -
27/12:30am 23.4 SE 3 4 1015.5 - 0.0 - - 10 - - - -
27/12:00am 23.5 ESE 3 5 1015.8 - 0.0 - - 10 - - - -
 
Date/Time
CST
Temp

°C
Wind Pressure Rain
since 9am
mm
Weather Cloud Vis
km
Sea
Height
m
Swell
Dir
 
Speed
knots
Gust
knots
hPa Trend Height
m
Period
s
Dir
26/11:30pm 23.8 CALM 0 0 1016.1 - 0.0 - - 10 - - - -
26/11:00pm 23.5 CALM 0 0 1016.0 - 0.0 - - 10 - - - -
26/10:30pm 23.6 CALM 0 0 1016.1 - 0.0 - - 10 - - - -
26/10:00pm 24.3 SE 1 3 1016.1 - 0.0 - - 10 - - - -
26/09:30pm 24.3 SSE 2 3 1016.0 - 0.0 - - 10 - - - -
26/09:00pm 24.9 SE 1 4 1016.0 - 0.0 - - 10 - - - -
26/08:30pm 25.1 SSE 3 5 1015.7 - 0.0 - - 10 - - - -
26/08:00pm 25.7 SE 3 5 1015.5 - 0.0 - - 10 - - - -
26/07:30pm 26.3 ESE 5 7 1015.3 - 0.0 - - 10 - - - -
26/07:00pm 26.6 ESE 5 8 1014.8 - 0.0 - - 10 - - - -
26/06:30pm 27.3 ESE 4 6 1014.5 - 0.0 - - 10 - - - -
26/06:00pm 28.1 ESE 5 7 1014.2 - 0.0 - - 10 - - - -

Other Formats:

Comma delimited format used in spreadsheet applications
http://www.bom.gov.au/fwo/IDD60701/IDD60701.94153.axf

JavaScript Object Notation format (JSON) in row-major order
http://www.bom.gov.au/fwo/IDD60701/IDD60701.94153.json